This is the latest recevied weather packets stored in our database for station/object N8BAP. If no packets are shown the sender has not sent any weather packets the latest 10 day(s).
| Time | Temp. | Humidity | Pressure | Rain* | Wind** | Luminosity | Snow |
|---|---|---|---|---|---|---|---|
| 1777499170 | 16.67° C | 72% | 1015 hPa | 0 mm | - | 237 W/m² | - |
| 1777498867 | 16.67° C | 71% | 1014.9 hPa | 0 mm | - | 205 W/m² | - |
| 1777498563 | 16.67° C | 70% | 1015 hPa | 0 mm | - | 118 W/m² | - |
| 1777498259 | 16.67° C | 72% | 1014.9 hPa | 0 mm | - | 250 W/m² | - |
| 1777497958 | 16.67° C | 74% | 1014.8 hPa | 0 mm | - | 154 W/m² | - |
| 1777497653 | 16.67° C | 74% | 1014.8 hPa | 0 mm | - | 111 W/m² | - |
| 1777497350 | 16.67° C | 73% | 1014.8 hPa | 0 mm | - | 257 W/m² | - |
| 1777497045 | 16.67° C | 73% | 1014.8 hPa | 0 mm | - | 203 W/m² | - |
| 1777496743 | 16.67° C | 74% | 1014.9 hPa | 0 mm | - | 491 W/m² | - |
| 1777496439 | 16.67° C | 71% | 1014.8 hPa | 0 mm | - | 198 W/m² | - |
| 1777496136 | 17.22° C | 71% | 1014.8 hPa | 0 mm | - | 494 W/m² | - |
| 1777495832 | 17.22° C | 72% | 1015 hPa | 0 mm | - | 270 W/m² | - |
| 1777495528 | 16.67° C | 76% | 1014.8 hPa | 0 mm | - | 511 W/m² | - |
| 1777495224 | 16.67° C | 74% | 1014.9 hPa | 0 mm | - | 529 W/m² | - |
| 1777494921 | 16.11° C | 75% | 1014.5 hPa | 0 mm | - | 556 W/m² | - |
| 1777494618 | 16.11° C | 79% | 1014.8 hPa | 0 mm | - | 473 W/m² | - |
| 1777494316 | 16.11° C | 80% | 1015 hPa | 0 mm | - | 196 W/m² | - |
| 1777494012 | 16.67° C | 77% | 1015.1 hPa | 0 mm | - | 206 W/m² | - |
| 1777493710 | 16.11° C | 81% | 1014.9 hPa | 0 mm | - | 608 W/m² | - |
| 1777493408 | 16.11° C | 80% | 1014.9 hPa | 0 mm | - | 190 W/m² | - |
| 1777493104 | 16.11° C | 84% | 1014.9 hPa | 0 mm | - | 385 W/m² | - |
| 1777492801 | 16.11° C | 82% | 1014.9 hPa | 0 mm | - | 315 W/m² | - |
| 1777492497 | 15° C | 87% | 1014.8 hPa | 0 mm | - | 596 W/m² | - |
| 1777492193 | 15° C | 86% | 1015 hPa | 0 mm | - | 218 W/m² | - |
| 1777491890 | 15° C | 86% | 1014.9 hPa | 0 mm | - | 111 W/m² | - |
* Rain latest hour (hover to see other rain measurements)
** Current wind speed in m/s (hover to see current wind gust speed)